SCO35AB EGPA-EGPO

Flight info

Callsign SCO35AB
Flight time 0h 42m
Altitude 18000
Route WIK N560 BONBY DCT STN
Aircraft AT76/M-SDFGIRY/S

Departure

Time 2026-05-04 20:36
Airport Kirkwall Airport (EGPA)

Arrival

Time 2026-05-04 21:19
Airport Stornoway Airport (EGPO)
Time Latitude Longitude Altitude Speed Heading
2026-05-04 20:24 58.95432 -2.90138 57 ft 0 kts 214°
2026-05-04 20:31 58.95443 -2.90125 57 ft 2 kts 214°
2026-05-04 20:31 58.95450 -2.90115 50 ft 0 kts 213°
2026-05-04 20:33 58.95450 -2.90117 50 ft 0 kts 221°
2026-05-04 20:33 58.95449 -2.90132 51 ft 3 kts 264°
2026-05-04 20:33 58.95464 -2.90237 53 ft 12 kts 299°
2026-05-04 20:34 58.95535 -2.90402 55 ft 20 kts 308°
2026-05-04 20:34 58.95564 -2.90597 49 ft 17 kts 270°
2026-05-04 20:34 58.95575 -2.90804 45 ft 12 kts 273°
2026-05-04 20:34 58.95540 -2.90999 45 ft 19 kts 247°
2026-05-04 20:35 58.95584 -2.91173 46 ft 14 kts 335°
2026-05-04 20:35 58.95660 -2.91231 45 ft 2 kts 339°
2026-05-04 20:35 58.95702 -2.91264 44 ft 10 kts 338°
2026-05-04 20:35 58.95754 -2.91282 44 ft 5 kts 21°
2026-05-04 20:36 58.95776 -2.91182 44 ft 28 kts 89°
2026-05-04 20:36 58.95795 -2.90316 47 ft 96 kts 87°
2026-05-04 20:36 58.95836 -2.88818 399 ft 114 kts 84°
2026-05-04 20:36 58.95921 -2.87129 760 ft 142 kts 82°
2026-05-04 20:37 58.96050 -2.85081 1192 ft 168 kts 83°
2026-05-04 20:37 58.96158 -2.82722 1646 ft 185 kts 84°
2026-05-04 20:37 58.96014 -2.80235 2184 ft 194 kts 117°
2026-05-04 20:37 58.95020 -2.78496 2746 ft 198 kts 162°
2026-05-04 20:38 58.93689 -2.78496 3363 ft 193 kts 205°
2026-05-04 20:38 58.92660 -2.80069 4003 ft 187 kts 229°
2026-05-04 20:38 58.91714 -2.81802 4657 ft 187 kts 225°
2026-05-04 20:38 58.90704 -2.83402 5301 ft 188 kts 221°
2026-05-04 20:39 58.89648 -2.84875 5920 ft 188 kts 220°
2026-05-04 20:39 58.88542 -2.86242 6537 ft 189 kts 216°
2026-05-04 20:39 58.87375 -2.87413 7113 ft 189 kts 211°
2026-05-04 20:39 58.86158 -2.88385 7709 ft 189 kts 206°
2026-05-04 20:40 58.84907 -2.89180 8290 ft 190 kts 203°
2026-05-04 20:40 58.84065 -2.89638 8671 ft 189 kts 202°
2026-05-04 20:40 58.82766 -2.90322 9083 ft 198 kts 202°
2026-05-04 20:40 58.81411 -2.91025 9494 ft 205 kts 202°
2026-05-04 20:41 58.80017 -2.91733 9903 ft 210 kts 202°
2026-05-04 20:41 58.78594 -2.92483 10277 ft 214 kts 202°
2026-05-04 20:41 58.77153 -2.93249 10639 ft 217 kts 203°
2026-05-04 20:41 58.75690 -2.94042 11013 ft 220 kts 203°
2026-05-04 20:42 58.74210 -2.94842 11406 ft 222 kts 203°
2026-05-04 20:42 58.72715 -2.95651 11786 ft 224 kts 203°
2026-05-04 20:42 58.71208 -2.96461 12165 ft 226 kts 203°
2026-05-04 20:42 58.69693 -2.97274 12566 ft 227 kts 203°
2026-05-04 20:43 58.68170 -2.98089 12959 ft 228 kts 204°
2026-05-04 20:43 58.66642 -2.98908 13361 ft 228 kts 204°
2026-05-04 20:43 58.65112 -2.99729 13770 ft 229 kts 204°
2026-05-04 20:43 58.63581 -3.00549 14130 ft 229 kts 204°
2026-05-04 20:44 58.62046 -3.01367 14491 ft 229 kts 204°
2026-05-04 20:44 58.60517 -3.02190 14855 ft 228 kts 204°
2026-05-04 20:44 58.58986 -3.03010 15224 ft 228 kts 204°
2026-05-04 20:44 58.57465 -3.03822 15599 ft 227 kts 204°
2026-05-04 20:45 58.55948 -3.04630 15977 ft 226 kts 204°
2026-05-04 20:45 58.54442 -3.05430 16363 ft 224 kts 204°
2026-05-04 20:45 58.52943 -3.06226 16749 ft 223 kts 204°
2026-05-04 20:45 58.51458 -3.07013 17146 ft 221 kts 205°
2026-05-04 20:46 58.49985 -3.07792 17540 ft 219 kts 205°
2026-05-04 20:46 58.48521 -3.08566 17862 ft 221 kts 205°
2026-05-04 20:46 58.47004 -3.09378 17942 ft 232 kts 205°
2026-05-04 20:46 58.45595 -3.10702 17979 ft 224 kts 228°
2026-05-04 20:47 58.44477 -3.12834 17989 ft 231 kts 235°
2026-05-04 20:47 58.43435 -3.15229 17994 ft 238 kts 237°
2026-05-04 20:47 58.42389 -3.17724 17997 ft 244 kts 237°
2026-05-04 20:47 58.41314 -3.20270 17997 ft 249 kts 236°
2026-05-04 20:48 58.40195 -3.22822 17998 ft 253 kts 235°
2026-05-04 20:48 58.39048 -3.25400 17992 ft 256 kts 235°
2026-05-04 20:48 58.37892 -3.27990 17997 ft 258 kts 235°
2026-05-04 20:48 58.36723 -3.30602 18001 ft 260 kts 235°
2026-05-04 20:49 58.35549 -3.33221 18000 ft 261 kts 235°
2026-05-04 20:49 58.34368 -3.35854 18001 ft 262 kts 235°
2026-05-04 20:49 58.33182 -3.38500 17999 ft 263 kts 235°
2026-05-04 20:49 58.31991 -3.41148 18004 ft 264 kts 235°
2026-05-04 20:50 58.30795 -3.43800 18000 ft 264 kts 235°
2026-05-04 20:50 58.29598 -3.46457 17998 ft 265 kts 235°
2026-05-04 20:50 58.28411 -3.49080 17998 ft 265 kts 234°
2026-05-04 20:50 58.27191 -3.51774 18002 ft 265 kts 234°
2026-05-04 20:51 58.26007 -3.54399 18004 ft 266 kts 235°
2026-05-04 20:51 58.24794 -3.57058 18005 ft 266 kts 234°
2026-05-04 20:51 58.23574 -3.59701 17994 ft 267 kts 234°
2026-05-04 20:51 58.22347 -3.62342 17999 ft 267 kts 233°
2026-05-04 20:52 58.21126 -3.65000 18006 ft 267 kts 234°
2026-05-04 20:52 58.19908 -3.67668 17989 ft 267 kts 234°
2026-05-04 20:52 58.18694 -3.70334 17995 ft 267 kts 234°
2026-05-04 20:52 58.17480 -3.72998 17998 ft 267 kts 234°
2026-05-04 20:53 58.16263 -3.75662 17993 ft 268 kts 234°
2026-05-04 20:53 58.15046 -3.78323 17989 ft 268 kts 234°
2026-05-04 20:53 58.13828 -3.80984 17991 ft 267 kts 234°
2026-05-04 20:53 58.12608 -3.83648 17997 ft 268 kts 234°
2026-05-04 20:54 58.11387 -3.86308 17998 ft 268 kts 234°
2026-05-04 20:54 58.10163 -3.88976 17994 ft 269 kts 234°
2026-05-04 20:54 58.08937 -3.91646 17994 ft 269 kts 234°
2026-05-04 20:54 58.07709 -3.94311 18002 ft 269 kts 234°
2026-05-04 20:55 58.06478 -3.96985 17983 ft 270 kts 234°
2026-05-04 20:55 58.05245 -3.99652 17988 ft 269 kts 234°
2026-05-04 20:55 58.04014 -4.02321 17993 ft 269 kts 234°
2026-05-04 20:55 58.02781 -4.04984 17991 ft 270 kts 234°
2026-05-04 20:56 58.01547 -4.07654 17984 ft 270 kts 234°
2026-05-04 20:56 58.00310 -4.10321 17985 ft 270 kts 234°
2026-05-04 20:56 57.99073 -4.12987 17986 ft 270 kts 234°
2026-05-04 20:56 57.97836 -4.15646 17989 ft 270 kts 233°
2026-05-04 20:57 57.96594 -4.18298 17986 ft 270 kts 233°
2026-05-04 20:57 57.95352 -4.20951 17987 ft 270 kts 234°
2026-05-04 20:57 57.94124 -4.23624 17992 ft 270 kts 233°
2026-05-04 20:57 57.92879 -4.26283 17989 ft 270 kts 233°
2026-05-04 20:58 57.91653 -4.28906 17992 ft 271 kts 233°
2026-05-04 20:58 57.90441 -4.31596 17987 ft 265 kts 240°
2026-05-04 20:58 57.89876 -4.34779 17993 ft 257 kts 268°
2026-05-04 20:58 57.89927 -4.38128 17991 ft 257 kts 278°
2026-05-04 20:59 57.90315 -4.41408 17991 ft 258 kts 287°
2026-05-04 20:59 57.90910 -4.44590 17991 ft 259 kts 290°
2026-05-04 20:59 57.91548 -4.47761 17990 ft 259 kts 290°
2026-05-04 20:59 57.92170 -4.50940 17992 ft 259 kts 289°
2026-05-04 21:00 57.92759 -4.54145 17998 ft 259 kts 288°
2026-05-04 21:00 57.93326 -4.57366 18002 ft 259 kts 288°
2026-05-04 21:00 57.93895 -4.60583 17996 ft 260 kts 288°
2026-05-04 21:00 57.94469 -4.63810 17995 ft 259 kts 288°
2026-05-04 21:01 57.95040 -4.67029 18001 ft 260 kts 288°
2026-05-04 21:01 57.95596 -4.70258 17995 ft 258 kts 284°
2026-05-04 21:01 57.95539 -4.73600 18005 ft 260 kts 258°
2026-05-04 21:01 57.94994 -4.76931 17478 ft 268 kts 256°
2026-05-04 21:02 57.94473 -4.80279 16947 ft 266 kts 259°
2026-05-04 21:02 57.94086 -4.83674 16424 ft 264 kts 263°
2026-05-04 21:02 57.93867 -4.87091 15903 ft 263 kts 267°
2026-05-04 21:02 57.93802 -4.90517 15399 ft 262 kts 272°
2026-05-04 21:03 57.93931 -4.93926 14901 ft 261 kts 278°
2026-05-04 21:03 57.94200 -4.97316 14406 ft 262 kts 280°
2026-05-04 21:03 57.94505 -5.00690 13914 ft 262 kts 280°
2026-05-04 21:03 57.94805 -5.04071 13391 ft 262 kts 280°
2026-05-04 21:04 57.95090 -5.07454 12852 ft 261 kts 279°
2026-05-04 21:04 57.95358 -5.10833 12342 ft 261 kts 279°
2026-05-04 21:04 57.95623 -5.14216 11828 ft 261 kts 279°
2026-05-04 21:04 57.95884 -5.17597 11321 ft 261 kts 279°
2026-05-04 21:05 57.96139 -5.20936 10819 ft 261 kts 279°
2026-05-04 21:05 57.96397 -5.24316 10323 ft 261 kts 279°
2026-05-04 21:05 57.96655 -5.27690 9830 ft 260 kts 279°
2026-05-04 21:05 57.96912 -5.31063 9291 ft 260 kts 279°
2026-05-04 21:06 57.97167 -5.34424 8764 ft 259 kts 279°
2026-05-04 21:06 57.97421 -5.37771 8244 ft 257 kts 279°
2026-05-04 21:06 57.97665 -5.41062 7728 ft 252 kts 278°
2026-05-04 21:06 57.97903 -5.44300 7231 ft 248 kts 279°
2026-05-04 21:07 57.98143 -5.47488 6729 ft 245 kts 279°
2026-05-04 21:07 57.98375 -5.50650 6216 ft 242 kts 279°
2026-05-04 21:07 57.98609 -5.53787 5690 ft 240 kts 279°
2026-05-04 21:07 57.98838 -5.56894 5173 ft 239 kts 279°
2026-05-04 21:08 57.99062 -5.59992 4656 ft 238 kts 279°
2026-05-04 21:08 57.99272 -5.63086 4126 ft 238 kts 278°
2026-05-04 21:08 57.99474 -5.66180 3608 ft 237 kts 278°
2026-05-04 21:08 57.99689 -5.69266 3077 ft 237 kts 278°
2026-05-04 21:09 57.99906 -5.72301 2767 ft 229 kts 278°
2026-05-04 21:09 58.00112 -5.75213 2637 ft 221 kts 278°
2026-05-04 21:09 58.00315 -5.78062 2568 ft 218 kts 279°
2026-05-04 21:09 58.00523 -5.80874 2468 ft 218 kts 278°
2026-05-04 21:10 58.00729 -5.83750 2216 ft 223 kts 279°
2026-05-04 21:10 58.00934 -5.86637 2115 ft 221 kts 278°
2026-05-04 21:10 58.01137 -5.89484 2074 ft 218 kts 278°
2026-05-04 21:10 58.01334 -5.92292 2047 ft 214 kts 278°
2026-05-04 21:11 58.01533 -5.95094 1934 ft 216 kts 278°
2026-05-04 21:11 58.01733 -5.97901 1871 ft 216 kts 278°
2026-05-04 21:11 58.01929 -6.00696 1823 ft 214 kts 278°
2026-05-04 21:11 58.02122 -6.03453 1814 ft 211 kts 279°
2026-05-04 21:12 58.02313 -6.06182 1814 ft 209 kts 279°
2026-05-04 21:12 58.02500 -6.08891 1805 ft 208 kts 278°
2026-05-04 21:12 58.02687 -6.11590 1803 ft 207 kts 278°
2026-05-04 21:12 58.02871 -6.14272 1792 ft 205 kts 279°
2026-05-04 21:13 58.03057 -6.16924 1793 ft 203 kts 279°
2026-05-04 21:13 58.03239 -6.19554 1798 ft 201 kts 278°
2026-05-04 21:13 58.03413 -6.22157 1809 ft 200 kts 279°
2026-05-04 21:13 58.03589 -6.24756 1801 ft 200 kts 279°
2026-05-04 21:14 58.03796 -6.27332 1795 ft 194 kts 286°
2026-05-04 21:14 58.04569 -6.29251 1803 ft 184 kts 329°
2026-05-04 21:14 58.05725 -6.30001 1806 ft 169 kts 342°
2026-05-04 21:14 58.06847 -6.30421 1804 ft 160 kts 347°
2026-05-04 21:15 58.07929 -6.30665 1809 ft 154 kts 349°
2026-05-04 21:15 58.08980 -6.30850 1796 ft 150 kts 350°
2026-05-04 21:15 58.10004 -6.31016 1791 ft 146 kts 350°
2026-05-04 21:15 58.10993 -6.31239 1794 ft 136 kts 342°
2026-05-04 21:16 58.11940 -6.31371 1653 ft 134 kts 354°
2026-05-04 21:16 58.12976 -6.31391 1230 ft 148 kts 352°
2026-05-04 21:16 58.13992 -6.31561 950 ft 146 kts 350°
2026-05-04 21:16 58.14939 -6.31810 908 ft 126 kts 346°
2026-05-04 21:17 58.15789 -6.32048 732 ft 119 kts 349°
2026-05-04 21:17 58.16590 -6.32196 612 ft 115 kts 350°
2026-05-04 21:17 58.17391 -6.32371 483 ft 112 kts 350°
2026-05-04 21:17 58.18170 -6.32485 381 ft 114 kts 353°
2026-05-04 21:18 58.18961 -6.32609 302 ft 111 kts 351°
2026-05-04 21:18 58.19728 -6.32770 180 ft 111 kts 349°
2026-05-04 21:18 58.20471 -6.32904 104 ft 107 kts 351°
2026-05-04 21:18 58.21203 -6.33035 54 ft 100 kts 350°
2026-05-04 21:19 58.21840 -6.33168 24 ft 67 kts 354°
2026-05-04 21:19 58.22232 -6.33203 21 ft 22 kts 347°
2026-05-04 21:19 58.22275 -6.33218 23 ft 0 kts 355°
2026-05-04 21:19 58.22283 -6.33218 21 ft 10 kts 357°
2026-05-04 21:20 58.22372 -6.33247 22 ft 4 kts 358°
2026-05-04 21:20 58.22503 -6.33281 21 ft 21 kts 349°
2026-05-04 21:20 58.22537 -6.33227 22 ft 14 kts 123°
2026-05-04 21:20 58.22374 -6.33263 25 ft 37 kts 179°
2026-05-04 21:21 58.22188 -6.33103 24 ft 28 kts 99°
2026-05-04 21:21 58.22052 -6.32659 24 ft 39 kts 137°
2026-05-04 21:21 58.21863 -6.32432 30 ft 20 kts 218°
2026-05-04 21:21 58.21841 -6.32568 25 ft 0 kts 315°